createdAt,value
2019-03-04T00:01:11.485Z,94.10
2019-03-04T00:03:40.333Z,94.10
2019-03-04T00:06:09.221Z,94.00
2019-03-04T00:08:38.056Z,93.80
2019-03-04T00:11:07.042Z,93.20
2019-03-04T00:13:35.874Z,93.60
2019-03-04T00:16:05.103Z,93.10
2019-03-04T00:18:34.033Z,92.40
2019-03-04T00:21:02.883Z,91.00
2019-03-04T00:23:31.714Z,90.40
2019-03-04T00:26:00.628Z,89.30
2019-03-04T00:28:29.471Z,88.30
2019-03-04T00:30:58.290Z,88.30
2019-03-04T00:33:27.479Z,87.70
2019-03-04T00:35:56.287Z,85.70
2019-03-04T00:38:25.112Z,84.80
2019-03-04T00:40:53.981Z,84.60
2019-03-04T00:43:22.964Z,83.70
2019-03-04T00:45:51.818Z,84.30
2019-03-04T00:48:20.726Z,83.60
2019-03-04T00:50:49.531Z,84.60
2019-03-04T00:53:18.377Z,85.00
2019-03-04T00:55:47.275Z,84.40
2019-03-04T00:58:16.726Z,84.80
2019-03-04T01:00:45.640Z,85.10
2019-03-04T01:03:14.533Z,85.40
2019-03-04T01:05:43.336Z,86.80
2019-03-04T01:08:12.200Z,87.80
2019-03-04T01:10:41.003Z,88.90
2019-03-04T01:13:09.831Z,90.20
2019-03-04T01:15:38.749Z,90.70
2019-03-04T01:18:07.702Z,90.70
2019-03-04T01:20:36.604Z,90.70
2019-03-04T01:23:05.599Z,90.90
2019-03-04T01:25:34.408Z,91.40
2019-03-04T01:28:03.305Z,91.50
2019-03-04T01:30:32.470Z,91.90
2019-03-04T01:33:01.351Z,92.10
2019-03-04T01:35:30.236Z,92.10
2019-03-04T01:37:59.143Z,92.00
2019-03-04T01:40:28.037Z,92.00
2019-03-04T01:42:56.960Z,92.00
2019-03-04T01:45:26.076Z,92.40
2019-03-04T01:47:54.944Z,92.30
2019-03-04T01:50:24.076Z,92.00
2019-03-04T01:52:52.989Z,91.60
2019-03-04T01:55:21.823Z,91.80
2019-03-04T01:57:50.662Z,92.00
2019-03-04T02:00:20.272Z,91.90
2019-03-04T02:02:49.228Z,91.80
2019-03-04T02:05:18.901Z,92.40
2019-03-04T02:07:47.886Z,92.60
2019-03-04T02:10:18.108Z,92.10
2019-03-04T02:12:47.479Z,92.10
2019-03-04T02:15:17.799Z,91.30
2019-03-04T02:17:46.670Z,91.30
2019-03-04T02:20:17.076Z,90.80
2019-03-04T02:22:46.427Z,90.70
2019-03-04T02:25:16.877Z,89.20
2019-03-04T02:27:48.599Z,88.60
2019-03-04T02:30:23.524Z,86.30
2019-03-04T02:32:52.426Z,87.30
2019-03-04T02:35:21.479Z,86.30
2019-03-04T02:37:50.400Z,84.20
2019-03-04T02:40:19.792Z,84.40
2019-03-04T02:42:48.727Z,84.60
2019-03-04T02:45:18.758Z,84.20
2019-03-04T02:47:48.073Z,83.10
2019-03-04T02:50:17.114Z,82.50
2019-03-04T02:52:46.168Z,80.10
2019-03-04T02:55:17.183Z,77.60
2019-03-04T02:57:46.121Z,76.50
2019-03-04T03:00:16.397Z,72.80
2019-03-04T03:02:46.096Z,70.20
2019-03-04T03:05:15.492Z,70.70
2019-03-04T03:07:44.426Z,70.10
2019-03-04T03:10:13.532Z,72.30
2019-03-04T03:12:42.474Z,74.20
2019-03-04T03:15:11.759Z,76.40
2019-03-04T03:17:40.690Z,77.90
2019-03-04T03:20:10.710Z,77.50
2019-03-04T03:22:39.655Z,79.50
2019-03-04T03:25:08.879Z,79.70
2019-03-04T03:27:37.774Z,83.00
2019-03-04T03:30:08.243Z,84.80
2019-03-04T03:32:37.131Z,85.40
2019-03-04T03:35:08.425Z,87.20
2019-03-04T03:37:37.791Z,86.80
2019-03-04T03:40:08.509Z,88.30
2019-03-04T03:42:37.370Z,88.30
2019-03-04T03:45:07.018Z,87.50
2019-03-04T03:47:35.901Z,87.30
2019-03-04T03:50:05.821Z,86.10
2019-03-04T03:52:34.654Z,85.10
2019-03-04T03:55:03.607Z,82.60
2019-03-04T03:57:32.498Z,81.90
2019-03-04T04:00:01.391Z,79.80
2019-03-04T04:02:30.374Z,75.30
2019-03-04T04:04:59.337Z,77.90
2019-03-04T04:07:28.142Z,77.70
2019-03-04T04:09:57.030Z,78.20
2019-03-04T04:12:25.860Z,75.90
2019-03-04T04:14:54.972Z,72.00
2019-03-04T04:17:23.796Z,72.20
2019-03-04T04:19:53.153Z,70.90
2019-03-04T04:22:22.281Z,70.50
2019-03-04T04:24:51.269Z,68.80
2019-03-04T04:27:20.075Z,67.80
2019-03-04T04:29:48.895Z,66.70
2019-03-04T04:32:17.734Z,64.60
2019-03-04T04:34:46.664Z,63.20
2019-03-04T04:37:15.477Z,62.40
2019-03-04T04:39:44.381Z,64.50
2019-03-04T04:42:13.225Z,64.40
2019-03-04T04:44:42.138Z,64.70
2019-03-04T04:47:11.233Z,65.20
2019-03-04T04:49:40.137Z,65.80
2019-03-04T04:52:09.120Z,67.70
2019-03-04T04:54:38.294Z,69.00
2019-03-04T04:57:07.967Z,71.60
2019-03-04T04:59:36.794Z,72.90
2019-03-04T05:02:05.602Z,75.00
2019-03-04T05:04:34.592Z,76.10
2019-03-04T05:07:03.501Z,76.00
2019-03-04T05:09:32.307Z,77.20
2019-03-04T05:12:01.149Z,79.40
2019-03-04T05:14:30.268Z,79.20
2019-03-04T05:16:59.195Z,80.20
2019-03-04T05:19:28.011Z,79.40
2019-03-04T05:21:57.495Z,79.80
2019-03-04T05:24:26.372Z,80.00
2019-03-04T05:26:55.191Z,77.70
2019-03-04T05:29:24.124Z,78.40
2019-03-04T05:31:52.927Z,79.10
2019-03-04T05:34:22.067Z,78.30
2019-03-04T05:36:50.963Z,77.20
2019-03-04T05:39:19.844Z,73.90
2019-03-04T05:41:48.693Z,74.70
2019-03-04T05:44:17.507Z,74.90
2019-03-04T05:46:46.411Z,73.50
2019-03-04T05:49:15.247Z,73.00
2019-03-04T05:51:44.142Z,68.40
2019-03-04T05:54:12.971Z,66.00
2019-03-04T05:56:41.807Z,65.60
2019-03-04T05:59:19.347Z,63.10
2019-03-04T06:01:44.524Z,62.50
2019-03-04T06:04:13.759Z,61.00
2019-03-04T06:07:13.263Z,61.40
2019-03-04T06:09:42.159Z,60.50
2019-03-04T06:12:11.490Z,60.00
2019-03-04T06:14:41.279Z,59.70
2019-03-04T06:17:10.240Z,58.00
2019-03-04T06:19:39.151Z,58.00
2019-03-04T06:22:08.363Z,62.40
2019-03-04T06:24:37.182Z,58.40
2019-03-04T06:27:06.028Z,66.80
2019-03-04T06:29:35.829Z,76.70
2019-03-04T06:32:05.343Z,82.10
2019-03-04T06:34:34.221Z,85.20
2019-03-04T06:37:04.364Z,86.80
2019-03-04T06:39:33.155Z,88.60
2019-03-04T06:42:02.415Z,88.80
2019-03-04T06:44:31.204Z,89.10
2019-03-04T06:47:00.033Z,92.40
2019-03-04T06:49:28.907Z,98.00
2019-03-04T06:51:58.164Z,97.80
2019-03-04T06:55:04.070Z,99.90
2019-03-04T06:57:48.616Z,99.90
2019-03-04T07:00:40.905Z,99.90
2019-03-04T07:03:31.195Z,99.90
2019-03-04T07:06:00.072Z,99.90
2019-03-04T07:09:01.289Z,99.90
2019-03-04T07:11:31.035Z,99.90
2019-03-04T07:13:59.992Z,99.90
2019-03-04T07:16:28.935Z,99.90
2019-03-04T07:18:57.783Z,99.90
2019-03-04T07:21:26.662Z,99.90
2019-03-04T07:23:55.888Z,99.90
2019-03-04T07:26:24.865Z,99.90
2019-03-04T07:28:53.772Z,99.90
2019-03-04T07:31:22.659Z,99.90
2019-03-04T07:33:51.479Z,99.90
2019-03-04T07:36:20.326Z,98.40
2019-03-04T07:38:57.303Z,97.10
2019-03-04T07:41:28.946Z,92.20
2019-03-04T07:43:57.784Z,81.50
2019-03-04T07:46:26.835Z,81.70
2019-03-04T07:48:56.048Z,90.10
2019-03-04T07:51:25.141Z,91.20
2019-03-04T07:53:54.653Z,91.10
2019-03-04T07:56:23.700Z,89.50
2019-03-04T07:58:52.687Z,90.50
2019-03-04T08:01:21.764Z,83.30
2019-03-04T08:03:50.643Z,72.00
2019-03-04T08:06:19.467Z,76.00
2019-03-04T08:12:40.803Z,70.00
2019-03-04T08:15:10.852Z,62.30
2019-03-04T08:17:39.776Z,65.90
2019-03-04T08:20:11.074Z,65.40
2019-03-04T08:22:40.841Z,67.00
2019-03-04T08:25:13.113Z,66.70
2019-03-04T08:27:42.813Z,65.60
2019-03-04T08:30:20.536Z,65.50
2019-03-04T08:32:49.540Z,65.20
2019-03-04T08:35:19.027Z,67.60
2019-03-04T08:37:48.219Z,63.20
2019-03-04T08:40:18.142Z,64.10
2019-03-04T08:42:47.117Z,62.40
2019-03-04T08:45:17.856Z,59.30
2019-03-04T08:47:47.164Z,59.50
2019-03-04T08:50:17.380Z,53.90
2019-03-04T08:52:46.348Z,52.70
2019-03-04T08:55:16.368Z,51.40
2019-03-04T08:57:45.731Z,50.80
2019-03-04T09:00:17.460Z,49.70
2019-03-04T09:02:46.494Z,47.00
2019-03-04T09:05:15.611Z,47.10
2019-03-04T09:07:44.817Z,46.50
2019-03-04T09:12:56.775Z,44.40
2019-03-04T09:15:26.049Z,45.90
2019-03-04T09:17:55.318Z,45.20
2019-03-04T09:20:24.543Z,42.60
2019-03-04T09:22:53.983Z,41.20
2019-03-04T09:25:30.662Z,41.60
2019-03-04T09:27:59.879Z,42.70
2019-03-04T09:30:29.731Z,40.70
2019-03-04T09:32:59.440Z,42.50
2019-03-04T09:35:28.743Z,41.50
2019-03-04T09:37:57.724Z,42.80
2019-03-04T09:40:28.311Z,41.20
2019-03-04T09:42:57.431Z,41.00
2019-03-04T09:45:26.500Z,39.10
2019-03-04T09:47:55.928Z,39.50
2019-03-04T09:50:25.797Z,40.80
2019-03-04T09:52:54.706Z,40.10
2019-03-04T09:55:24.107Z,40.00
2019-03-04T09:57:53.071Z,43.10
2019-03-04T10:00:30.191Z,42.50
2019-03-04T10:03:18.597Z,41.00
2019-03-04T10:09:07.073Z,42.40
2019-03-04T10:11:48.971Z,40.00
2019-03-04T10:15:08.389Z,38.70
2019-03-04T10:17:49.578Z,37.70
2019-03-04T10:20:57.779Z,36.00
2019-03-04T10:23:50.496Z,36.30
2019-03-04T10:27:12.683Z,34.90
2019-03-04T10:30:23.125Z,35.60
2019-03-04T10:33:32.020Z,35.90
2019-03-04T10:39:33.799Z,38.50
2019-03-04T10:42:36.870Z,37.80
2019-03-04T10:45:50.069Z,37.70
2019-03-04T10:48:18.900Z,39.10
2019-03-04T10:50:47.776Z,40.00
2019-03-04T10:53:16.600Z,41.10
2019-03-04T10:55:45.440Z,42.20
2019-03-04T10:58:14.659Z,42.20
2019-03-04T11:00:43.959Z,42.50
2019-03-04T11:03:12.905Z,42.10
2019-03-04T11:05:41.763Z,41.50
2019-03-04T11:08:22.134Z,41.90
2019-03-04T11:10:51.059Z,41.80
2019-03-04T11:13:19.937Z,42.20
2019-03-04T11:15:48.974Z,42.80
2019-03-04T11:18:18.029Z,44.80
2019-03-04T11:20:47.349Z,45.40
2019-03-04T11:23:16.319Z,44.90
2019-03-04T11:25:45.362Z,46.20
2019-03-04T11:28:14.311Z,46.90
2019-03-04T11:30:43.239Z,48.00
2019-03-04T11:33:12.499Z,48.00
2019-03-04T11:35:41.513Z,47.90
2019-03-04T11:38:33.496Z,50.70
2019-03-04T11:41:02.510Z,52.90
2019-03-04T11:43:32.046Z,56.50
2019-03-04T11:46:01.475Z,58.70
2019-03-04T11:48:31.078Z,60.20
2019-03-04T11:50:59.991Z,95.40
2019-03-04T11:53:29.142Z,99.90
2019-03-04T11:55:58.046Z,99.90
2019-03-04T11:58:27.023Z,99.90
2019-03-04T12:01:10.494Z,99.90
2019-03-04T12:03:39.379Z,99.90
2019-03-04T12:06:08.695Z,99.90
2019-03-04T12:08:38.373Z,99.90
2019-03-04T12:11:07.334Z,99.90
2019-03-04T12:13:36.302Z,99.90
2019-03-04T12:16:05.782Z,99.90
2019-03-04T12:18:35.349Z,99.90
2019-03-04T12:21:04.483Z,99.90
2019-03-04T12:23:33.404Z,99.90
2019-03-04T12:26:02.425Z,99.90
2019-03-04T12:28:31.595Z,99.90
2019-03-04T12:31:00.531Z,99.90
2019-03-04T12:33:29.493Z,99.90
2019-03-04T12:35:58.371Z,99.90
2019-03-04T12:38:27.196Z,99.90
2019-03-04T12:40:56.068Z,99.90
2019-03-04T12:43:24.967Z,99.90
2019-03-04T12:45:54.351Z,99.90
2019-03-04T12:48:23.343Z,99.90
2019-03-04T12:50:52.586Z,99.90
2019-03-04T12:53:21.827Z,99.90
2019-03-04T12:55:50.767Z,99.90
2019-03-04T12:58:19.650Z,99.90
2019-03-04T13:00:48.684Z,99.90
2019-03-04T13:03:20.479Z,99.90
2019-03-04T13:05:49.347Z,99.90
2019-03-04T13:08:18.340Z,99.90
2019-03-04T13:10:47.295Z,99.90
2019-03-04T13:13:17.732Z,99.90
2019-03-04T13:15:48.213Z,99.90
2019-03-04T13:18:18.003Z,99.90
2019-03-04T13:20:47.284Z,99.90
2019-03-04T13:23:16.188Z,99.90
2019-03-04T13:25:45.043Z,99.90
2019-03-04T13:28:14.175Z,98.40
2019-03-04T13:30:43.710Z,99.80
2019-03-04T13:33:12.818Z,99.90
2019-03-04T13:35:41.790Z,99.30
2019-03-04T13:38:10.785Z,99.30
2019-03-04T13:40:39.756Z,98.60
2019-03-04T13:43:08.659Z,98.40
2019-03-04T13:45:37.730Z,97.90
2019-03-04T13:48:06.740Z,97.40
2019-03-04T13:50:37.122Z,96.30
2019-03-04T13:53:06.519Z,96.40
2019-03-04T13:55:35.871Z,94.20
2019-03-04T13:58:05.456Z,94.20
2019-03-04T14:00:34.680Z,94.20
2019-03-04T14:03:04.049Z,93.10
2019-03-04T14:05:32.995Z,94.30
2019-03-04T14:08:02.022Z,91.40
2019-03-04T14:10:33.237Z,90.60
2019-03-04T14:13:02.212Z,93.40
2019-03-04T14:15:33.117Z,92.40
2019-03-04T14:18:02.161Z,91.90
2019-03-04T14:20:31.590Z,92.20
2019-03-04T14:23:00.510Z,92.10
2019-03-04T14:25:29.448Z,88.80
2019-03-04T14:27:58.357Z,89.90
2019-03-04T14:30:27.383Z,91.90
2019-03-04T14:32:56.304Z,90.90
2019-03-04T14:35:25.546Z,90.70
2019-03-04T14:37:54.550Z,87.60
2019-03-04T14:40:23.564Z,82.90
2019-03-04T14:42:54.915Z,79.80
2019-03-04T14:45:23.605Z,71.30
2019-03-04T14:47:52.600Z,72.20
2019-03-04T14:50:21.689Z,76.40
2019-03-04T14:52:50.695Z,70.90
2019-03-04T14:55:19.800Z,69.30
2019-03-04T14:57:48.820Z,64.50
2019-03-04T15:00:22.072Z,59.20
2019-03-04T15:02:56.316Z,57.60
2019-03-04T15:05:25.284Z,54.60
2019-03-04T15:07:55.660Z,57.20
2019-03-04T15:10:24.886Z,54.50
2019-03-04T15:12:53.822Z,54.20
2019-03-04T15:15:23.052Z,54.40
2019-03-04T15:17:51.983Z,56.40
2019-03-04T15:20:21.863Z,55.90
2019-03-04T15:22:50.999Z,54.80
2019-03-04T15:25:22.740Z,50.30
2019-03-04T15:27:52.146Z,51.10
2019-03-04T15:30:21.485Z,52.80
2019-03-04T15:32:50.309Z,48.80
2019-03-04T15:35:19.610Z,43.00
2019-03-04T15:37:48.589Z,46.70
2019-03-04T15:40:17.779Z,44.50
2019-03-04T15:42:47.050Z,44.30
2019-03-04T15:45:16.073Z,44.70
2019-03-04T15:47:45.070Z,46.70
2019-03-04T15:50:14.401Z,48.30
2019-03-04T15:52:45.235Z,50.50
2019-03-04T15:55:14.686Z,50.50
2019-03-04T15:57:44.282Z,50.30
2019-03-04T16:00:13.294Z,48.90
2019-03-04T16:02:44.553Z,49.30
2019-03-04T16:05:14.317Z,48.80
2019-03-04T16:07:43.239Z,49.60
2019-03-04T16:10:12.513Z,46.30
2019-03-04T16:12:43.062Z,47.10
2019-03-04T16:15:14.009Z,44.50
2019-03-04T16:17:43.283Z,45.30
2019-03-04T16:20:16.244Z,46.80
2019-03-04T16:22:44.731Z,47.90
2019-03-04T16:25:13.961Z,48.10
2019-03-04T16:27:43.082Z,46.80
2019-03-04T16:30:14.856Z,47.70
2019-03-04T16:32:43.995Z,45.40
2019-03-04T16:35:13.297Z,46.40
2019-03-04T16:37:42.613Z,45.80
2019-03-04T16:40:14.069Z,44.90
2019-03-04T16:42:43.043Z,44.80
2019-03-04T16:45:13.911Z,45.00
2019-03-04T16:47:42.932Z,41.20
2019-03-04T16:50:13.345Z,41.90
2019-03-04T16:52:42.872Z,44.20
2019-03-04T16:55:13.567Z,44.30
2019-03-04T16:57:42.646Z,44.80
2019-03-04T17:00:14.812Z,44.60
2019-03-04T17:02:44.019Z,41.50
2019-03-04T17:05:14.959Z,42.40
2019-03-04T17:07:44.195Z,42.20
2019-03-04T17:10:13.651Z,43.90
2019-03-04T17:12:42.622Z,44.50
2019-03-04T17:15:13.706Z,43.70
2019-03-04T17:17:42.731Z,44.50
2019-03-04T17:20:12.290Z,44.40
2019-03-04T17:22:41.264Z,45.40
2019-03-04T17:25:12.120Z,46.00
2019-03-04T17:27:41.525Z,47.00
2019-03-04T17:30:12.684Z,47.20
2019-03-04T17:32:41.811Z,46.20
2019-03-04T17:35:11.803Z,45.90
2019-03-04T17:37:40.871Z,45.70
2019-03-04T17:40:11.528Z,45.90
2019-03-04T17:42:41.013Z,44.90
2019-03-04T17:45:12.198Z,46.40
2019-03-04T17:47:41.140Z,42.70
2019-03-04T17:50:12.114Z,41.90
2019-03-04T17:52:41.276Z,41.70
2019-03-04T17:55:11.942Z,44.00
2019-03-04T17:57:41.289Z,44.80
2019-03-04T18:00:13.090Z,44.50
2019-03-04T18:02:42.067Z,45.00
2019-03-04T18:05:11.254Z,45.80
2019-03-04T18:07:40.762Z,45.40
2019-03-04T18:10:12.051Z,44.60
2019-03-04T18:12:41.219Z,44.00
2019-03-04T18:15:13.406Z,43.10
2019-03-04T18:17:42.487Z,43.10
2019-03-04T18:20:12.360Z,43.90
2019-03-04T18:22:41.392Z,44.60
2019-03-04T18:25:14.899Z,45.80
2019-03-04T18:28:05.355Z,47.40
2019-03-04T18:30:55.423Z,48.90
2019-03-04T18:33:38.387Z,50.40
2019-03-04T18:36:19.579Z,52.10
2019-03-04T18:39:10.378Z,53.40
2019-03-04T18:42:08.787Z,54.60
2019-03-04T18:45:03.962Z,54.60
2019-03-04T18:48:26.069Z,55.60
2019-03-04T18:50:55.184Z,55.80
2019-03-04T18:53:24.070Z,56.20
2019-03-04T18:55:53.007Z,57.10
2019-03-04T18:58:22.165Z,56.90
2019-03-04T19:00:50.998Z,55.20
2019-03-04T19:03:19.920Z,56.90
2019-03-04T19:05:49.255Z,57.70
2019-03-04T19:08:18.449Z,58.90
2019-03-04T19:10:47.716Z,59.80
2019-03-04T19:13:16.914Z,59.30
2019-03-04T19:15:45.951Z,58.80
2019-03-04T19:18:14.978Z,59.00
2019-03-04T19:20:44.129Z,57.50
2019-03-04T19:23:13.172Z,58.10
2019-03-04T19:25:42.207Z,60.10
2019-03-04T19:28:11.843Z,60.30
2019-03-04T19:30:40.987Z,60.70
2019-03-04T19:33:10.123Z,61.20
2019-03-04T19:35:39.412Z,62.50
2019-03-04T19:38:08.610Z,63.80
2019-03-04T19:40:37.702Z,64.50
2019-03-04T19:43:07.018Z,65.80
2019-03-04T19:45:37.929Z,64.40
2019-03-04T19:48:07.111Z,65.90
2019-03-04T19:50:36.259Z,67.10
2019-03-04T19:53:05.679Z,67.20
2019-03-04T19:55:34.765Z,67.20
2019-03-04T19:58:03.937Z,67.10
2019-03-04T20:00:33.884Z,67.50
2019-03-04T20:03:03.061Z,66.90
2019-03-04T20:05:32.523Z,67.10
2019-03-04T20:08:01.614Z,67.30
2019-03-04T20:10:31.365Z,69.20
2019-03-04T20:13:00.353Z,70.50
2019-03-04T20:15:29.456Z,70.20
2019-03-04T20:17:59.149Z,70.60
2019-03-04T20:20:28.367Z,71.90
2019-03-04T20:22:57.330Z,73.30
2019-03-04T20:25:26.845Z,72.00
2019-03-04T20:27:55.839Z,69.10
2019-03-04T20:30:25.684Z,65.00
2019-03-04T20:32:54.847Z,64.60
2019-03-04T20:35:24.027Z,64.40
2019-03-04T20:37:54.026Z,64.50
2019-03-04T20:40:23.041Z,63.60
2019-03-04T20:42:51.991Z,60.00
2019-03-04T20:45:22.471Z,59.60
2019-03-04T20:47:51.535Z,59.90
2019-03-04T20:50:20.534Z,60.90
2019-03-04T20:52:50.160Z,68.40
2019-03-04T20:55:19.522Z,73.80
2019-03-04T20:57:48.491Z,84.70
2019-03-04T21:00:33.728Z,92.50
2019-03-04T21:03:03.650Z,93.10
2019-03-04T21:05:33.071Z,93.80
2019-03-04T21:08:02.485Z,94.40
2019-03-04T21:10:31.486Z,95.60
2019-03-04T21:13:20.804Z,96.70
2019-03-04T21:15:50.035Z,97.60
2019-03-04T21:18:20.089Z,98.80
2019-03-04T21:20:49.522Z,99.10
2019-03-04T21:23:18.691Z,99.90
2019-03-04T21:25:56.956Z,99.90
2019-03-04T21:28:44.206Z,99.90
2019-03-04T21:31:47.261Z,99.90
2019-03-04T21:34:44.222Z,99.90
2019-03-04T21:37:18.493Z,99.90
2019-03-04T21:39:48.570Z,99.90
2019-03-04T21:42:49.944Z,99.90
2019-03-04T21:45:48.402Z,99.90
2019-03-04T21:48:44.385Z,99.90
2019-03-04T21:51:40.888Z,99.90
2019-03-04T21:54:10.410Z,99.90
2019-03-04T21:57:06.931Z,99.90
2019-03-04T21:59:35.804Z,99.80
2019-03-04T22:02:15.353Z,99.90
2019-03-04T22:04:44.502Z,99.80
2019-03-04T22:07:15.099Z,99.30
2019-03-04T22:09:44.092Z,99.20
2019-03-04T22:12:13.651Z,98.90
2019-03-04T22:14:42.862Z,98.80
2019-03-04T22:17:11.815Z,98.10
2019-03-04T22:19:40.731Z,97.40
2019-03-04T22:22:09.735Z,97.10
2019-03-04T22:24:38.570Z,96.00
2019-03-04T22:27:07.593Z,95.60
2019-03-04T22:29:36.568Z,95.20
2019-03-04T22:32:05.480Z,94.80
2019-03-04T22:34:34.434Z,94.10
2019-03-04T22:37:03.244Z,92.60
2019-03-04T22:39:34.085Z,90.30
2019-03-04T22:42:03.039Z,90.50
2019-03-04T22:44:31.861Z,90.70
2019-03-04T22:47:00.857Z,90.10
2019-03-04T22:49:30.097Z,89.90
2019-03-04T22:51:59.015Z,88.70
2019-03-04T22:54:27.970Z,85.60
2019-03-04T22:56:56.903Z,86.30
2019-03-04T22:59:25.843Z,85.10
2019-03-04T23:01:59.545Z,85.80
2019-03-04T23:04:43.871Z,82.50
2019-03-04T23:07:15.035Z,85.20
2019-03-04T23:10:02.827Z,82.40
2019-03-04T23:12:37.065Z,83.00
2019-03-04T23:15:08.002Z,82.70
2019-03-04T23:17:37.080Z,83.10
2019-03-04T23:20:06.766Z,82.80
2019-03-04T23:22:35.605Z,82.50
2019-03-04T23:25:05.077Z,83.10
2019-03-04T23:27:33.879Z,83.60
2019-03-04T23:30:02.805Z,83.30
2019-03-04T23:32:31.632Z,82.70
2019-03-04T23:35:00.509Z,82.30
2019-03-04T23:37:29.492Z,81.60
2019-03-04T23:39:58.329Z,81.60
2019-03-04T23:42:27.258Z,81.60
2019-03-04T23:44:56.063Z,80.00
2019-03-04T23:47:25.019Z,79.20
2019-03-04T23:50:15.833Z,79.90
2019-03-04T23:52:44.789Z,79.90
2019-03-04T23:55:13.965Z,80.00
2019-03-04T23:57:42.876Z,81.90
